Afton, Tennessee
Current Conditions -  °F | °C
As of 9:53 PM on Monday 26 Jan 2015 (Local Time) from KTRI Reporting Station
Overcast Overcast  
Wind Chill: 20°   Ceiling: 1500
Heat Index: 30°   Visibility: 10mi
Dew Point: 25°   Wind: 13mph
Humidity: 82%   Direction: 270°W
Pressure: 29.89"   Gusts: NA
Location:  36.19°N, 82.74°W
Report Text: KTRI 270253Z 27011KT 10SM OVC015 M01/M04 A2989 RMK AO2 SLP119 T10111039 50006
Loading
Personal Weather Stations






























Interactive Weather Map New forecast layout! Learn more

10-Day Weather Forecast

Advertisements
Track Severe Weather on mobile